createdAt,value
2023-02-12T00:00:16.898Z,15.50
2023-02-12T00:02:19.044Z,10.65
2023-02-12T00:04:20.712Z,12.82
2023-02-12T00:06:22.919Z,13.00
2023-02-12T00:08:24.620Z,14.77
2023-02-12T00:10:26.314Z,14.88
2023-02-12T00:12:27.931Z,12.50
2023-02-12T00:14:29.543Z,12.13
2023-02-12T00:16:31.274Z,13.00
2023-02-12T00:18:32.931Z,13.80
2023-02-12T00:20:34.899Z,13.35
2023-02-12T00:22:36.582Z,10.93
2023-02-12T00:24:38.240Z,11.30
2023-02-12T00:26:39.966Z,12.30
2023-02-12T00:28:41.940Z,12.50
2023-02-12T00:30:43.793Z,12.40
2023-02-12T00:32:46.422Z,12.15
2023-02-12T00:34:48.077Z,13.38
2023-02-12T00:36:49.664Z,15.02
2023-02-12T00:38:53.067Z,11.57
2023-02-12T00:40:54.886Z,13.32
2023-02-12T00:42:56.479Z,12.88
2023-02-12T00:44:58.109Z,13.82
2023-02-12T00:47:02.476Z,12.35
2023-02-12T00:49:04.165Z,16.55
2023-02-12T00:51:06.040Z,14.68
2023-02-12T00:53:08.394Z,13.70
2023-02-12T00:55:10.032Z,11.18
2023-02-12T00:57:11.696Z,13.80
2023-02-12T00:59:13.279Z,10.57
2023-02-12T01:01:15.054Z,13.52
2023-02-12T01:03:17.108Z,12.93
2023-02-12T01:05:19.717Z,11.82
2023-02-12T01:07:21.565Z,13.85
2023-02-12T01:09:23.222Z,14.55
2023-02-12T01:11:24.810Z,16.58
2023-02-12T01:13:27.398Z,13.88
2023-02-12T01:15:29.066Z,14.80
2023-02-12T01:17:30.684Z,13.23
2023-02-12T01:19:32.379Z,13.13
2023-02-12T01:21:35.302Z,14.02
2023-02-12T01:23:36.990Z,12.63
2023-02-12T01:25:38.991Z,11.18
2023-02-12T01:27:40.995Z,14.40
2023-02-12T01:29:44.777Z,16.27
2023-02-12T01:31:46.641Z,13.80
2023-02-12T01:33:49.779Z,12.93
2023-02-12T01:35:51.456Z,11.93
2023-02-12T01:37:53.230Z,16.85
2023-02-12T01:39:54.965Z,14.55
2023-02-12T01:41:56.699Z,14.55
2023-02-12T01:44:06.155Z,15.65
2023-02-12T01:46:10.782Z,17.38
2023-02-12T01:48:14.641Z,13.32
2023-02-12T01:50:18.943Z,14.05
2023-02-12T01:52:27.784Z,17.35
2023-02-12T01:54:29.886Z,16.70
2023-02-12T01:56:32.213Z,16.02
2023-02-12T01:58:39.738Z,16.30
2023-02-12T02:00:41.477Z,17.10
2023-02-12T02:02:45.511Z,17.23
2023-02-12T02:04:52.404Z,17.92
2023-02-12T02:06:57.682Z,15.60
2023-02-12T02:08:59.321Z,14.30
2023-02-12T02:11:00.954Z,17.00
2023-02-12T02:13:21.580Z,15.23
2023-02-12T02:15:23.639Z,16.83
2023-02-12T02:17:55.728Z,14.57
2023-02-12T02:20:22.784Z,15.82
2023-02-12T02:23:01.881Z,14.07
2023-02-12T02:25:15.882Z,22.33
2023-02-12T02:27:28.661Z,16.00
2023-02-12T02:30:14.909Z,16.30
2023-02-12T02:32:23.314Z,16.23
2023-02-12T02:34:35.080Z,16.60
2023-02-12T02:37:00.874Z,17.00
2023-02-12T02:39:11.056Z,15.70
2023-02-12T02:41:20.568Z,15.55
2023-02-12T02:43:49.699Z,17.98
2023-02-12T02:45:53.526Z,15.40
2023-02-12T02:48:14.135Z,17.30
2023-02-12T02:50:18.800Z,16.35
2023-02-12T02:52:25.753Z,18.15
2023-02-12T02:54:40.518Z,16.92
2023-02-12T02:56:45.425Z,14.60
2023-02-12T02:58:52.495Z,16.88
2023-02-12T03:01:14.288Z,16.38
2023-02-12T03:03:39.766Z,18.33
2023-02-12T03:05:47.630Z,15.65
2023-02-12T03:07:54.225Z,16.33
2023-02-12T03:10:32.079Z,17.33
2023-02-12T03:12:41.757Z,22.90
2023-02-12T03:14:54.488Z,16.20
2023-02-12T03:17:04.617Z,19.80
2023-02-12T03:19:13.989Z,17.98
2023-02-12T03:21:19.606Z,18.70
2023-02-12T03:23:26.144Z,16.13
2023-02-12T03:25:36.869Z,16.75
2023-02-12T03:27:47.630Z,19.02
2023-02-12T03:29:49.302Z,20.92
2023-02-12T03:32:39.128Z,20.65
2023-02-12T03:35:10.341Z,20.83
2023-02-12T03:37:19.388Z,19.63
2023-02-12T03:39:41.972Z,20.95
2023-02-12T03:42:04.566Z,22.73
2023-02-12T03:44:18.909Z,18.70
2023-02-12T03:48:42.209Z,25.08
2023-02-12T03:50:58.973Z,21.65
2023-02-12T03:53:00.556Z,20.27
2023-02-12T03:55:03.141Z,22.83
2023-02-12T03:57:10.890Z,32.17
2023-02-12T03:59:12.716Z,20.15
2023-02-12T04:01:14.828Z,21.90
2023-02-12T04:03:16.510Z,22.77
2023-02-12T04:05:20.040Z,25.38
2023-02-12T04:07:21.885Z,24.17
2023-02-12T04:09:25.397Z,23.42
2023-02-12T04:11:58.055Z,24.77
2023-02-12T04:14:32.851Z,23.13
2023-02-12T04:16:46.272Z,24.13
2023-02-12T04:18:51.775Z,25.08
2023-02-12T04:21:21.112Z,26.10
2023-02-12T04:23:40.957Z,24.75
2023-02-12T04:25:54.027Z,25.48
2023-02-12T04:27:57.494Z,21.83
2023-02-12T04:30:21.817Z,20.73
2023-02-12T04:32:38.795Z,29.65
2023-02-12T04:34:46.183Z,24.00
2023-02-12T04:36:59.572Z,23.08
2023-02-12T04:39:08.690Z,23.07
2023-02-12T04:41:10.751Z,24.88
2023-02-12T04:43:12.675Z,22.90
2023-02-12T04:45:17.184Z,24.73
2023-02-12T04:47:18.816Z,28.33
2023-02-12T04:49:21.718Z,30.10
2023-02-12T04:51:23.747Z,34.10
2023-02-12T04:53:25.416Z,33.30
2023-02-12T04:55:27.120Z,40.13
2023-02-12T04:57:28.779Z,38.35
2023-02-12T04:59:30.467Z,34.60
2023-02-12T05:01:35.334Z,37.67
2023-02-12T05:03:37.698Z,34.17
2023-02-12T05:05:39.268Z,33.47
2023-02-12T05:07:40.967Z,26.60
2023-02-12T05:09:42.661Z,31.75
2023-02-12T05:11:44.759Z,24.75
2023-02-12T05:13:53.389Z,25.33
2023-02-12T05:15:55.478Z,19.83
2023-02-12T05:17:57.321Z,23.10
2023-02-12T05:19:58.965Z,20.48
2023-02-12T05:22:00.640Z,20.52
2023-02-12T05:24:03.308Z,23.05
2023-02-12T05:26:07.379Z,20.30
2023-02-12T05:28:09.027Z,24.05
2023-02-12T05:30:11.078Z,24.52
2023-02-12T05:32:12.875Z,18.92
2023-02-12T05:34:14.595Z,18.05
2023-02-12T05:36:18.645Z,22.13
2023-02-12T05:38:20.280Z,20.00
2023-02-12T05:40:22.014Z,20.90
2023-02-12T05:42:23.632Z,19.83
2023-02-12T05:44:25.200Z,20.35
2023-02-12T05:46:27.055Z,18.25
2023-02-12T05:48:29.520Z,22.60
2023-02-12T05:50:31.078Z,20.83
2023-02-12T05:52:33.868Z,23.40
2023-02-12T05:54:35.560Z,23.88
2023-02-12T05:56:42.106Z,21.92
2023-02-12T05:58:52.833Z,25.17
2023-02-12T06:00:54.464Z,24.80
2023-02-12T06:02:56.304Z,22.30
2023-02-12T06:04:57.900Z,23.92
2023-02-12T06:07:00.752Z,24.20
2023-02-12T06:09:02.800Z,18.90
2023-02-12T06:11:06.623Z,20.67
2023-02-12T06:13:08.311Z,16.17
2023-02-12T06:15:09.963Z,18.83
2023-02-12T06:17:11.733Z,19.85
2023-02-12T06:19:13.543Z,19.70
2023-02-12T06:21:16.070Z,18.65
2023-02-12T06:23:17.697Z,19.63
2023-02-12T06:25:19.314Z,18.63
2023-02-12T06:27:21.005Z,19.58
2023-02-12T06:29:23.012Z,19.67
2023-02-12T06:31:27.659Z,20.75
2023-02-12T06:33:29.392Z,18.63
2023-02-12T06:35:30.965Z,19.35
2023-02-12T06:37:32.923Z,16.73
2023-02-12T06:39:34.532Z,15.90
2023-02-12T06:41:36.124Z,19.60
2023-02-12T06:43:37.927Z,18.73
2023-02-12T06:45:39.663Z,18.92
2023-02-12T06:47:41.284Z,16.70
2023-02-12T06:49:42.950Z,19.13
2023-02-12T06:51:44.597Z,18.02
2023-02-12T06:53:46.171Z,18.45
2023-02-12T06:55:47.804Z,16.52
2023-02-12T06:57:49.501Z,21.80
2023-02-12T06:59:51.119Z,17.60
2023-02-12T07:01:52.752Z,19.08
2023-02-12T07:03:57.654Z,21.08
2023-02-12T07:05:59.300Z,21.83
2023-02-12T07:08:00.909Z,16.52
2023-02-12T07:10:02.564Z,19.58
2023-02-12T07:12:04.777Z,18.98
2023-02-12T07:14:07.513Z,18.27
2023-02-12T07:16:14.480Z,19.90
2023-02-12T07:18:16.092Z,18.83
2023-02-12T07:20:17.952Z,17.88
2023-02-12T07:22:20.784Z,21.42
2023-02-12T07:24:22.440Z,19.77
2023-02-12T07:26:24.284Z,20.23
2023-02-12T07:28:26.987Z,20.88
2023-02-12T07:30:28.676Z,18.23
2023-02-12T07:32:32.808Z,19.85
2023-02-12T07:34:34.439Z,20.85
2023-02-12T07:36:36.332Z,22.30
2023-02-12T07:38:41.297Z,22.83
2023-02-12T07:40:43.741Z,23.95
2023-02-12T07:42:45.343Z,20.75
2023-02-12T07:44:46.967Z,29.02
2023-02-12T07:46:49.499Z,28.63
2023-02-12T07:48:51.564Z,30.98
2023-02-12T07:50:53.109Z,27.35
2023-02-12T07:52:54.778Z,34.03
2023-02-12T07:54:56.446Z,28.30
2023-02-12T07:56:58.436Z,27.33
2023-02-12T07:59:02.191Z,28.17
2023-02-12T08:01:23.754Z,29.05
2023-02-12T08:03:25.420Z,31.42
2023-02-12T08:05:28.223Z,36.42
2023-02-12T08:07:29.837Z,37.33
2023-02-12T08:09:31.485Z,32.42
2023-02-12T08:11:36.875Z,31.65
2023-02-12T08:13:39.031Z,35.90
2023-02-12T08:15:40.600Z,41.28
2023-02-12T08:17:43.658Z,36.60
2023-02-12T08:19:45.316Z,34.13
2023-02-12T08:21:50.471Z,26.98
2023-02-12T08:23:54.181Z,26.92
2023-02-12T08:25:56.152Z,26.55
2023-02-12T08:27:57.954Z,25.15
2023-02-12T08:29:59.601Z,25.45
2023-02-12T08:32:02.785Z,26.98
2023-02-12T08:34:05.031Z,27.45
2023-02-12T08:36:12.214Z,25.90
2023-02-12T08:38:13.844Z,22.90
2023-02-12T08:40:15.476Z,24.30
2023-02-12T08:42:17.081Z,23.70
2023-02-12T08:44:18.960Z,20.95
2023-02-12T08:46:22.805Z,26.90
2023-02-12T08:50:25.931Z,26.45
2023-02-12T08:52:27.547Z,23.92
2023-02-12T08:54:30.679Z,21.55
2023-02-12T08:56:33.543Z,25.25
2023-02-12T08:58:35.672Z,23.73
2023-02-12T09:00:39.553Z,21.05
2023-02-12T09:02:42.140Z,24.17
2023-02-12T09:04:43.849Z,26.02
2023-02-12T09:06:46.486Z,23.55
2023-02-12T09:08:48.720Z,24.35
2023-02-12T09:10:50.402Z,23.48
2023-02-12T09:12:52.014Z,25.45
2023-02-12T09:14:53.632Z,28.13
2023-02-12T09:16:57.374Z,28.02
2023-02-12T09:18:59.201Z,24.38
2023-02-12T09:21:03.365Z,23.85
2023-02-12T09:23:05.883Z,23.55
2023-02-12T09:25:07.678Z,26.15
2023-02-12T09:27:09.300Z,22.98
2023-02-12T09:29:10.990Z,43.63
2023-02-12T09:31:17.858Z,34.80
2023-02-12T09:33:19.582Z,25.67
2023-02-12T09:35:21.366Z,27.85
2023-02-12T09:37:22.987Z,27.40
2023-02-12T09:39:24.627Z,24.52
2023-02-12T09:42:07.272Z,23.50
2023-02-12T09:44:16.042Z,24.92
2023-02-12T09:46:32.622Z,23.52
2023-02-12T09:49:02.056Z,23.70
2023-02-12T09:51:07.748Z,28.15
2023-02-12T09:53:13.465Z,27.45
2023-02-12T09:55:16.639Z,24.15
2023-02-12T09:57:23.981Z,25.67
2023-02-12T09:59:35.983Z,24.05
2023-02-12T10:01:37.700Z,28.05
2023-02-12T10:03:39.618Z,27.60
2023-02-12T10:05:49.709Z,27.92
2023-02-12T10:08:24.859Z,31.02
2023-02-12T10:10:26.556Z,28.73
2023-02-12T10:12:47.688Z,28.52
2023-02-12T10:15:01.284Z,27.70
2023-02-12T10:17:24.085Z,30.63
2023-02-12T10:19:49.198Z,29.63
2023-02-12T10:22:03.453Z,29.40
2023-02-12T10:26:28.827Z,31.80
2023-02-12T10:28:35.939Z,32.00
2023-02-12T10:30:53.254Z,33.20
2023-02-12T10:32:59.485Z,32.80
2023-02-12T10:35:02.406Z,34.38
2023-02-12T10:37:12.320Z,32.78
2023-02-12T10:39:25.230Z,32.47
2023-02-12T10:41:28.633Z,30.13
2023-02-12T10:43:30.641Z,31.45
2023-02-12T10:45:39.848Z,34.00
2023-02-12T10:47:41.597Z,38.13
2023-02-12T10:49:43.238Z,35.40
2023-02-12T10:51:59.508Z,32.47
2023-02-12T10:54:35.927Z,32.65
2023-02-12T10:56:37.563Z,31.70
2023-02-12T10:58:53.911Z,31.60
2023-02-12T11:01:00.410Z,28.95
2023-02-12T11:03:14.137Z,34.60
2023-02-12T11:05:26.365Z,34.38
2023-02-12T11:07:28.638Z,28.05
2023-02-12T11:09:45.493Z,35.30
2023-02-12T11:11:49.516Z,32.85
2023-02-12T11:14:05.656Z,29.05
2023-02-12T11:16:08.220Z,30.85
2023-02-12T11:18:26.173Z,33.08
2023-02-12T11:20:52.042Z,34.13
2023-02-12T11:23:06.325Z,35.50
2023-02-12T11:27:25.827Z,33.58
2023-02-12T11:29:27.438Z,37.88
2023-02-12T11:31:31.745Z,42.03
2023-02-12T11:33:35.303Z,32.28
2023-02-12T11:35:37.215Z,36.67
2023-02-12T11:37:46.352Z,33.97
2023-02-12T11:39:49.245Z,36.90
2023-02-12T11:41:56.862Z,41.95
2023-02-12T11:43:58.719Z,32.05
2023-02-12T11:46:00.902Z,32.05
2023-02-12T11:48:02.732Z,29.98
2023-02-12T11:50:07.386Z,34.72
2023-02-12T11:52:21.267Z,32.58
2023-02-12T11:54:25.875Z,32.70
2023-02-12T11:56:42.116Z,35.22
2023-02-12T11:58:44.985Z,36.40
2023-02-12T12:01:03.577Z,34.53
2023-02-12T12:03:27.174Z,45.30
2023-02-12T12:05:35.538Z,34.58
2023-02-12T12:07:39.959Z,30.80
2023-02-12T12:09:46.204Z,30.27
2023-02-12T12:12:00.261Z,33.15
2023-02-12T12:14:07.281Z,31.83
2023-02-12T12:16:31.939Z,29.23
2023-02-12T12:20:57.003Z,33.75
2023-02-12T12:23:19.438Z,30.92
2023-02-12T12:25:25.626Z,32.25
2023-02-12T12:28:00.896Z,27.83
2023-02-12T12:30:07.019Z,31.60
2023-02-12T12:32:10.430Z,30.05
2023-02-12T12:34:20.622Z,34.25
2023-02-12T12:36:55.868Z,32.20
2023-02-12T12:39:24.985Z,29.10
2023-02-12T12:41:49.967Z,35.13
2023-02-12T12:44:03.860Z,27.27
2023-02-12T12:46:18.647Z,35.85
2023-02-12T12:48:26.065Z,28.08
2023-02-12T12:50:43.395Z,33.05
2023-02-12T12:52:50.696Z,33.95
2023-02-12T12:55:26.384Z,32.53
2023-02-12T12:57:44.306Z,35.95
2023-02-12T12:59:53.485Z,35.50
2023-02-12T13:02:00.344Z,34.35
2023-02-12T13:04:26.729Z,35.28
2023-02-12T13:06:40.372Z,33.90
2023-02-12T13:09:00.809Z,43.22
2023-02-12T13:11:28.625Z,33.00
2023-02-12T13:13:33.269Z,31.13
2023-02-12T13:15:55.351Z,38.22
2023-02-12T13:18:09.747Z,36.63
2023-02-12T13:23:00.329Z,34.13
2023-02-12T13:25:19.357Z,39.15
2023-02-12T13:27:24.666Z,34.22
2023-02-12T13:29:51.890Z,36.30
2023-02-12T13:31:57.315Z,31.70
2023-02-12T13:34:02.341Z,36.50
2023-02-12T13:36:05.929Z,35.72
2023-02-12T13:38:09.518Z,31.80
2023-02-12T13:40:22.565Z,36.08
2023-02-12T13:42:50.527Z,37.67
2023-02-12T13:45:18.158Z,36.95
2023-02-12T13:47:45.628Z,33.70
2023-02-12T13:49:52.186Z,39.30
2023-02-12T13:52:00.558Z,36.75
2023-02-12T13:54:11.167Z,31.17
2023-02-12T13:56:29.830Z,31.23
2023-02-12T13:58:31.764Z,34.90
2023-02-12T14:00:51.458Z,37.80
2023-02-12T14:02:53.257Z,36.20
2023-02-12T14:05:03.524Z,37.35
2023-02-12T14:07:10.034Z,34.05
2023-02-12T14:09:11.708Z,40.72
2023-02-12T14:11:16.700Z,36.35
2023-02-12T14:13:21.736Z,35.55
2023-02-12T14:15:36.681Z,40.58
2023-02-12T14:17:40.480Z,38.95
2023-02-12T14:19:51.258Z,33.15
2023-02-12T14:21:52.958Z,36.58
2023-02-12T14:23:54.566Z,34.47
2023-02-12T14:26:14.073Z,38.88
2023-02-12T14:28:26.749Z,32.45
2023-02-12T14:30:39.176Z,39.13
2023-02-12T14:32:44.977Z,32.73
2023-02-12T14:34:47.083Z,36.17
2023-02-12T14:36:51.495Z,40.25
2023-02-12T14:38:58.607Z,37.05
2023-02-12T14:41:45.173Z,35.17
2023-02-12T14:44:01.655Z,40.13
2023-02-12T14:46:24.874Z,39.03
2023-02-12T14:48:45.301Z,32.38
2023-02-12T14:50:52.023Z,33.95
2023-02-12T14:52:59.355Z,36.83
2023-02-12T14:55:39.096Z,32.55
2023-02-12T14:57:41.457Z,37.35
2023-02-12T14:59:44.293Z,34.97
2023-02-12T15:01:46.098Z,37.90
2023-02-12T15:03:51.442Z,35.78
2023-02-12T15:06:13.208Z,34.40
2023-02-12T15:08:39.394Z,39.05
2023-02-12T15:10:50.679Z,39.45
2023-02-12T15:13:00.255Z,36.58
2023-02-12T15:15:01.795Z,34.58
2023-02-12T15:17:10.150Z,39.30
2023-02-12T15:19:39.499Z,42.33
2023-02-12T15:21:41.694Z,38.40
2023-02-12T15:23:45.430Z,40.35
2023-02-12T15:25:50.736Z,41.38
2023-02-12T15:27:58.936Z,37.55
2023-02-12T15:30:00.675Z,38.20
2023-02-12T15:32:05.080Z,43.70
2023-02-12T15:34:06.816Z,38.83
2023-02-12T15:36:09.939Z,37.65
2023-02-12T15:38:21.364Z,38.78
2023-02-12T15:40:23.521Z,37.17
2023-02-12T15:42:28.698Z,42.00
2023-02-12T15:44:32.576Z,40.38
2023-02-12T15:48:36.963Z,44.95
2023-02-12T15:50:50.623Z,45.83
2023-02-12T15:52:53.051Z,39.78
2023-02-12T15:54:55.070Z,43.03
2023-02-12T15:56:56.796Z,44.50
2023-02-12T15:59:00.781Z,44.03
2023-02-12T16:01:05.813Z,46.70
2023-02-12T16:03:21.155Z,39.67
2023-02-12T16:05:23.131Z,46.90
2023-02-12T16:07:26.335Z,48.50
2023-02-12T16:09:32.283Z,43.25
2023-02-12T16:11:34.589Z,42.97
2023-02-12T16:13:37.091Z,41.17
2023-02-12T16:15:40.354Z,44.20
2023-02-12T16:17:47.345Z,44.67
2023-02-12T16:20:04.479Z,48.13
2023-02-12T16:22:07.604Z,43.05
2023-02-12T16:24:37.969Z,50.20
2023-02-12T16:26:39.674Z,42.83
2023-02-12T16:28:46.948Z,40.83
2023-02-12T16:30:48.693Z,42.38
2023-02-12T16:32:50.745Z,44.60
2023-02-12T16:35:25.284Z,47.22
2023-02-12T16:37:38.962Z,50.53
2023-02-12T16:40:06.108Z,48.00
2023-02-12T16:42:15.226Z,46.35
2023-02-12T16:44:16.860Z,50.60
2023-02-12T16:46:19.136Z,56.35
2023-02-12T16:48:24.837Z,51.65
2023-02-12T16:50:30.324Z,50.55
2023-02-12T16:52:37.741Z,49.40
2023-02-12T16:54:39.476Z,53.33
2023-02-12T16:56:42.031Z,59.05
2023-02-12T16:58:44.878Z,63.63
2023-02-12T17:00:46.703Z,58.35
2023-02-12T17:02:48.550Z,53.85
2023-02-12T17:04:50.191Z,54.22
2023-02-12T17:06:52.024Z,54.60
2023-02-12T17:08:53.646Z,53.65
2023-02-12T17:10:55.247Z,56.90
2023-02-12T17:12:56.858Z,58.55
2023-02-12T17:14:58.466Z,56.72
2023-02-12T17:17:00.096Z,55.80
2023-02-12T17:19:01.815Z,59.25
2023-02-12T17:21:05.779Z,55.50
2023-02-12T17:25:10.204Z,58.47
2023-02-12T17:27:13.834Z,54.87
2023-02-12T17:29:15.420Z,59.10
2023-02-12T17:31:17.246Z,57.03
2023-02-12T17:33:19.330Z,59.53
2023-02-12T17:35:21.002Z,55.92
2023-02-12T17:37:24.652Z,59.03
2023-02-12T17:39:26.251Z,53.97
2023-02-12T17:41:27.917Z,53.28
2023-02-12T17:43:29.536Z,61.50
2023-02-12T17:45:31.493Z,59.47
2023-02-12T17:47:39.708Z,57.95
2023-02-12T17:49:42.061Z,58.15
2023-02-12T17:51:43.711Z,57.67
2023-02-12T17:53:45.674Z,65.45
2023-02-12T17:55:47.263Z,62.67
2023-02-12T17:57:53.260Z,64.03
2023-02-12T17:59:54.863Z,67.07
2023-02-12T18:01:56.621Z,65.15
2023-02-12T18:03:58.899Z,66.78
2023-02-12T18:06:00.618Z,78.47
2023-02-12T18:08:03.617Z,76.68
2023-02-12T18:10:06.822Z,75.53
2023-02-12T18:12:08.788Z,83.75
2023-02-12T18:14:11.512Z,85.55
2023-02-12T18:16:14.026Z,82.63
2023-02-12T18:18:16.798Z,88.80
2023-02-12T18:20:18.462Z,91.97
2023-02-12T18:22:21.240Z,98.35
2023-02-12T18:24:22.854Z,91.88
2023-02-12T18:26:24.558Z,112.47
2023-02-12T18:28:26.220Z,109.55
2023-02-12T18:30:28.597Z,98.70
2023-02-12T18:32:30.367Z,93.00
2023-02-12T18:34:32.046Z,98.88
2023-02-12T18:36:33.754Z,88.93
2023-02-12T18:38:36.557Z,78.30
2023-02-12T18:40:40.335Z,87.43
2023-02-12T18:42:42.082Z,73.85
2023-02-12T18:44:43.760Z,82.65
2023-02-12T18:46:45.461Z,96.63
2023-02-12T18:48:47.429Z,93.60
2023-02-12T18:50:51.772Z,101.32
2023-02-12T18:52:53.575Z,90.40
2023-02-12T18:54:55.427Z,92.40
2023-02-12T18:56:57.058Z,92.60
2023-02-12T18:58:59.878Z,83.50
2023-02-12T19:01:01.963Z,81.70
2023-02-12T19:03:03.691Z,84.82
2023-02-12T19:05:05.597Z,91.43
2023-02-12T19:07:07.176Z,82.10
2023-02-12T19:09:09.233Z,79.82
2023-02-12T19:11:11.680Z,89.63
2023-02-12T19:13:13.248Z,84.35
2023-02-12T19:15:14.814Z,79.35
2023-02-12T19:17:16.560Z,79.00
2023-02-12T19:19:21.930Z,87.70
2023-02-12T19:21:26.399Z,84.63
2023-02-12T19:23:28.120Z,81.47
2023-02-12T19:25:29.685Z,77.47
2023-02-12T19:27:31.958Z,76.55
2023-02-12T19:29:33.607Z,77.53
2023-02-12T19:31:37.904Z,78.97
2023-02-12T19:33:41.038Z,68.55
2023-02-12T19:35:43.231Z,77.97
2023-02-12T19:37:44.796Z,65.75
2023-02-12T19:39:46.465Z,72.10
2023-02-12T19:41:48.775Z,69.95
2023-02-12T19:43:58.471Z,69.45
2023-02-12T19:46:20.664Z,70.57
2023-02-12T19:48:22.328Z,61.72
2023-02-12T19:50:23.962Z,66.72
2023-02-12T19:52:25.662Z,63.55
2023-02-12T19:54:27.427Z,63.97
2023-02-12T19:56:29.096Z,79.70
2023-02-12T19:58:31.286Z,79.85
2023-02-12T20:00:32.853Z,79.07
2023-02-12T20:02:34.579Z,70.57
2023-02-12T20:04:37.007Z,70.65
2023-02-12T20:06:39.538Z,63.03
2023-02-12T20:08:42.062Z,63.35
2023-02-12T20:10:43.748Z,66.40
2023-02-12T20:12:45.450Z,75.15
2023-02-12T20:14:47.009Z,70.70
2023-02-12T20:16:50.183Z,68.88
2023-02-12T20:18:53.569Z,69.88
2023-02-12T20:20:55.416Z,71.68
2023-02-12T20:22:57.239Z,70.05
2023-02-12T20:24:58.802Z,70.03
2023-02-12T20:27:01.773Z,71.38
2023-02-12T20:29:05.378Z,73.70
2023-02-12T20:31:12.630Z,74.03
2023-02-12T20:33:14.416Z,75.88
2023-02-12T20:35:16.225Z,80.32
2023-02-12T20:37:18.949Z,82.03
2023-02-12T20:39:21.020Z,83.90
2023-02-12T20:41:23.796Z,73.07
2023-02-12T20:43:25.418Z,75.15
2023-02-12T20:45:27.125Z,76.85
2023-02-12T20:47:29.048Z,75.45
2023-02-12T20:49:30.698Z,71.30
2023-02-12T20:51:32.915Z,75.43
2023-02-12T20:53:35.435Z,75.10
2023-02-12T20:55:37.096Z,76.13
2023-02-12T20:57:38.764Z,80.57
2023-02-12T20:59:40.479Z,78.47
2023-02-12T21:01:42.996Z,82.63
2023-02-12T21:03:45.124Z,74.80
2023-02-12T21:05:46.732Z,78.85
2023-02-12T21:07:49.827Z,76.88
2023-02-12T21:09:51.481Z,68.20
2023-02-12T21:11:53.195Z,67.82
2023-02-12T21:14:18.365Z,64.70
2023-02-12T21:16:18.523Z,64.63
2023-02-12T21:18:24.210Z,66.68
2023-02-12T21:20:25.899Z,70.53
2023-02-12T21:22:27.532Z,68.57
2023-02-12T21:24:29.211Z,65.70
2023-02-12T21:26:32.397Z,62.90
2023-02-12T21:28:34.746Z,64.75
2023-02-12T21:30:36.441Z,68.85
2023-02-12T21:32:37.989Z,73.47
2023-02-12T21:34:39.700Z,72.60
2023-02-12T21:36:42.357Z,75.28
2023-02-12T21:38:45.596Z,73.85
2023-02-12T21:40:47.240Z,72.47
2023-02-12T21:42:48.936Z,72.43
2023-02-12T21:44:50.633Z,69.15
2023-02-12T21:46:52.722Z,68.15
2023-02-12T21:48:55.378Z,72.40
2023-02-12T21:50:57.482Z,72.57
2023-02-12T21:52:59.258Z,60.47
2023-02-12T21:55:00.945Z,70.78
2023-02-12T21:57:02.613Z,57.20
2023-02-12T21:59:04.509Z,64.38
2023-02-12T22:01:11.436Z,61.97
2023-02-12T22:03:13.166Z,63.13
2023-02-12T22:05:14.887Z,62.97
2023-02-12T22:07:16.791Z,61.08
2023-02-12T22:09:20.630Z,70.75
2023-02-12T22:11:23.383Z,59.05
2023-02-12T22:13:24.994Z,63.25
2023-02-12T22:15:26.640Z,61.92
2023-02-12T22:17:28.304Z,63.72
2023-02-12T22:19:29.935Z,63.67
2023-02-12T22:21:34.895Z,66.90
2023-02-12T22:23:37.226Z,70.18
2023-02-12T22:25:38.910Z,68.80
2023-02-12T22:27:40.528Z,69.10
2023-02-12T22:29:42.157Z,64.75
2023-02-12T22:31:45.474Z,63.78
2023-02-12T22:33:47.848Z,66.63
2023-02-12T22:35:49.498Z,69.53
2023-02-12T22:37:51.101Z,70.68
2023-02-12T22:39:52.752Z,69.18
2023-02-12T22:41:54.662Z,66.38
2023-02-12T22:43:59.107Z,65.90
2023-02-12T22:46:01.107Z,69.43
2023-02-12T22:48:02.830Z,64.95
2023-02-12T22:50:05.123Z,69.93
2023-02-12T22:52:06.723Z,66.07
2023-02-12T22:54:13.402Z,64.70
2023-02-12T22:56:15.666Z,67.82
2023-02-12T22:58:17.558Z,65.43
2023-02-12T23:00:19.879Z,63.33
2023-02-12T23:02:21.507Z,67.50
2023-02-12T23:04:23.973Z,66.22
2023-02-12T23:06:29.266Z,65.80
2023-02-12T23:08:31.754Z,62.33
2023-02-12T23:10:33.516Z,62.80
2023-02-12T23:12:35.204Z,65.65
2023-02-12T23:14:36.781Z,70.28
2023-02-12T23:16:38.482Z,71.38
2023-02-12T23:18:40.169Z,67.35
2023-02-12T23:20:41.924Z,63.72
2023-02-12T23:22:43.586Z,69.65
2023-02-12T23:24:46.078Z,66.35
2023-02-12T23:26:47.775Z,70.22
2023-02-12T23:28:49.466Z,66.00
2023-02-12T23:30:52.232Z,66.10
2023-02-12T23:32:54.155Z,65.07
2023-02-12T23:34:55.860Z,70.25
2023-02-12T23:36:57.584Z,67.38
2023-02-12T23:38:59.442Z,71.05
2023-02-12T23:41:01.052Z,67.90
2023-02-12T23:43:02.749Z,67.97
2023-02-12T23:45:04.560Z,62.90
2023-02-12T23:47:06.195Z,63.30
2023-02-12T23:49:07.897Z,62.33
2023-02-12T23:51:10.240Z,64.20
2023-02-12T23:53:12.312Z,72.93
2023-02-12T23:55:13.958Z,57.83
2023-02-12T23:57:15.779Z,61.38
2023-02-12T23:59:17.554Z,65.05
